Time;durP1;ratioP1;P1;durP2;ratioP2;P2;SDS_P1;SDS_P2;PMS_P1;PMS_P2;Temp;Humidity;BMP_temperature;BMP_pressure;BME280_temperature;BME280_humidity;BME280_pressure;Samples;Min_cycle;Max_cycle;Signal;HPM_P1;HPM_P2
2022/11/10 00:02:06;;;;;;;;;;;12.70;99.50;;;;;;5028227;28;19929;-69
2022/11/10 00:04:33;;;;;;;;;;;12.70;99.20;;;;;;5034400;28;19933;-68
2022/11/10 00:06:59;;;;;;;;;;;12.70;99.20;;;;;;5038580;28;19936;-69
2022/11/10 00:09:26;;;;;;;;;;;12.70;99.20;;;;;;5031828;28;19929;-69
2022/11/10 00:11:54;;;;;;;;;;;12.70;99.20;;;;;;5032904;28;19937;-68
2022/11/10 00:17:04;;;;;;;;;;;12.70;99.20;;;;;;5026586;28;20474;-69
2022/11/10 00:19:31;;;;;;;;;;;12.70;99.20;;;;;;5037334;28;19935;-68
2022/11/10 00:21:57;;;;;;;;;;;12.70;99.20;;;;;;5038031;28;19951;-69
2022/11/10 00:24:24;;;;;;;;;;;12.70;99.20;;;;;;5035414;28;19937;-69
2022/11/10 00:26:51;;;;;;;;;;;12.60;99.20;;;;;;5032608;28;19940;-69
2022/11/10 00:29:19;;;;;;;;;;;12.60;99.20;;;;;;5030846;28;19952;-69
2022/11/10 00:31:46;;;;;;;;;;;12.60;99.20;;;;;;5023172;28;19929;-69
2022/11/10 00:34:13;;;;;;;;;;;12.60;99.20;;;;;;5028293;28;19929;-69
2022/11/10 00:36:40;;;;;;;;;;;12.60;99.20;;;;;;5030053;28;19940;-70
2022/11/10 00:39:06;;;;;;;;;;;12.60;99.20;;;;;;5025823;28;19932;-69
2022/11/10 00:41:33;;;;;;;;;;;12.60;99.20;;;;;;5030601;28;20024;-69
2022/11/10 00:44:00;;;;;;;;;;;12.60;99.20;;;;;;5030737;28;19938;-69
2022/11/10 00:46:27;;;;;;;;;;;12.60;99.20;;;;;;5030097;28;19932;-69
2022/11/10 00:48:54;;;;;;;;;;;12.60;99.20;;;;;;5037819;28;20536;-70
2022/11/10 00:51:22;;;;;;;;;;;12.60;99.20;;;;;;5034973;28;20415;-69
2022/11/10 00:53:48;;;;;;;;;;;12.60;99.20;;;;;;5039374;28;19936;-69
2022/11/10 00:56:15;;;;;;;;;;;12.60;99.20;;;;;;5033917;28;19936;-70
2022/11/10 00:58:42;;;;;;;;;;;12.60;99.20;;;;;;5030303;28;19937;-70
2022/11/10 01:01:08;;;;;;;;;;;12.50;99.20;;;;;;5027863;28;19929;-70
2022/11/10 01:03:37;;;;;;;;;;;12.50;99.20;;;;;;5031600;28;19928;-69
2022/11/10 01:06:04;;;;;;;;;;;12.50;99.20;;;;;;5032533;28;19933;-69
2022/11/10 01:08:31;;;;;;;;;;;12.50;99.20;;;;;;5027890;28;19944;-69
2022/11/10 01:11:01;;;;;;;;;;;12.50;99.50;;;;;;5030808;28;19933;-69
2022/11/10 01:13:27;;;;;;;;;;;12.50;99.20;;;;;;5028408;28;19960;-69
2022/11/10 01:15:54;;;;;;;;;;;12.50;99.20;;;;;;5029631;28;19929;-69
2022/11/10 01:18:21;;;;;;;;;;;12.50;99.20;;;;;;5031795;28;19928;-69
2022/11/10 01:20:51;;;;;;;;;;;12.40;99.10;;;;;;5029067;28;19937;-69
2022/11/10 01:23:17;;;;;;;;;;;12.40;99.40;;;;;;5030125;28;19933;-69
2022/11/10 01:25:44;;;;;;;;;;;12.40;99.10;;;;;;5028116;28;19942;-69
2022/11/10 01:28:11;;;;;;;;;;;12.40;99.10;;;;;;5028691;28;19929;-69
2022/11/10 01:30:37;;;;;;;;;;;12.40;99.10;;;;;;5030472;28;19941;-69
2022/11/10 01:33:04;;;;;;;;;;;12.40;99.10;;;;;;5026600;28;19936;-69
2022/11/10 01:35:30;;;;;;;;;;;12.30;99.10;;;;;;5034246;28;19944;-69
2022/11/10 01:37:58;;;;;;;;;;;12.30;99.10;;;;;;5020284;28;19936;-69
2022/11/10 01:40:25;;;;;;;;;;;12.30;99.10;;;;;;5026304;28;19929;-69
2022/11/10 01:42:52;;;;;;;;;;;12.20;99.10;;;;;;5029091;28;20182;-69
2022/11/10 01:45:37;;;;;;;;;;;12.30;99.10;;;;;;5030002;28;19936;-68
2022/11/10 01:48:06;;;;;;;;;;;12.20;99.10;;;;;;5026432;28;19929;-69
2022/11/10 01:50:33;;;;;;;;;;;12.20;99.10;;;;;;5029623;28;20140;-69
2022/11/10 01:53:03;;;;;;;;;;;12.20;99.10;;;;;;5030491;28;19937;-69
2022/11/10 01:55:30;;;;;;;;;;;12.20;99.10;;;;;;5034816;28;19929;-69
2022/11/10 01:57:57;;;;;;;;;;;12.20;99.10;;;;;;5032365;28;19929;-69
2022/11/10 02:00:23;;;;;;;;;;;12.20;99.20;;;;;;5026407;28;19929;-69
2022/11/10 02:02:51;;;;;;;;;;;12.10;99.10;;;;;;5025102;28;19934;-69
2022/11/10 02:05:19;;;;;;;;;;;12.20;99.20;;;;;;5036904;28;19928;-69
2022/11/10 02:07:45;;;;;;;;;;;12.10;99.20;;;;;;5031786;28;20439;-69
2022/11/10 02:10:15;;;;;;;;;;;12.10;99.20;;;;;;5037600;28;19940;-69
2022/11/10 02:12:42;;;;;;;;;;;12.10;99.20;;;;;;5028129;28;19933;-69
2022/11/10 02:15:10;;;;;;;;;;;12.10;99.20;;;;;;5029132;28;19937;-69
2022/11/10 02:17:36;;;;;;;;;;;12.10;99.20;;;;;;5033483;28;19925;-70
2022/11/10 02:20:05;;;;;;;;;;;12.10;99.20;;;;;;5026571;28;19936;-69
2022/11/10 02:22:33;;;;;;;;;;;12.10;99.20;;;;;;5034753;28;19933;-69
2022/11/10 02:25:00;;;;;;;;;;;12.00;99.20;;;;;;5034153;28;19948;-69
2022/11/10 02:27:26;;;;;;;;;;;12.00;99.20;;;;;;5027292;28;19929;-67
2022/11/10 02:29:53;;;;;;;;;;;12.00;99.20;;;;;;5033768;28;19963;-69
2022/11/10 02:32:19;;;;;;;;;;;12.00;99.20;;;;;;5029660;28;20019;-68
2022/11/10 02:34:46;;;;;;;;;;;12.00;99.30;;;;;;5025992;28;19963;-69
2022/11/10 02:37:12;;;;;;;;;;;12.00;99.20;;;;;;5024441;28;19940;-69
2022/11/10 02:39:40;;;;;;;;;;;12.00;99.30;;;;;;5029800;28;19951;-69
2022/11/10 02:42:09;;;;;;;;;;;11.90;99.20;;;;;;5027842;28;19936;-69
2022/11/10 02:44:35;;;;;;;;;;;11.90;99.20;;;;;;5021938;28;20035;-69
2022/11/10 02:47:02;;;;;;;;;;;11.90;99.20;;;;;;5027625;28;19940;-69
2022/11/10 02:49:28;;;;;;;;;;;11.90;99.20;;;;;;5027191;28;19929;-69
2022/11/10 02:51:55;;;;;;;;;;;11.90;99.20;;;;;;5026450;28;19936;-69
2022/11/10 02:54:21;;;;;;;;;;;11.90;99.20;;;;;;5024031;28;19933;-69
2022/11/10 02:56:49;;;;;;;;;;;11.80;99.20;;;;;;5029914;28;19938;-70
2022/11/10 02:59:16;;;;;;;;;;;11.80;99.10;;;;;;5028508;28;19933;-70
2022/11/10 03:01:42;;;;;;;;;;;11.80;99.10;;;;;;5025225;28;19929;-69
2022/11/10 03:04:09;;;;;;;;;;;11.80;99.10;;;;;;5027579;28;19933;-68
2022/11/10 03:06:36;;;;;;;;;;;11.80;99.10;;;;;;5026187;28;19940;-68
2022/11/10 03:09:02;;;;;;;;;;;11.80;99.10;;;;;;5027760;28;19940;-69
2022/11/10 03:11:29;;;;;;;;;;;11.70;99.10;;;;;;5023049;28;19933;-69
2022/11/10 03:13:56;;;;;;;;;;;11.70;99.10;;;;;;5025450;28;19937;-69
2022/11/10 03:16:23;;;;;;;;;;;11.70;99.10;;;;;;5028398;28;19984;-69
2022/11/10 03:18:50;;;;;;;;;;;11.70;99.10;;;;;;5030696;28;19932;-69
2022/11/10 03:21:16;;;;;;;;;;;11.70;99.10;;;;;;5031120;28;19951;-69
2022/11/10 03:23:43;;;;;;;;;;;11.70;99.10;;;;;;5039910;28;19939;-69
2022/11/10 03:26:09;;;;;;;;;;;11.70;99.10;;;;;;5027651;28;19936;-69
2022/11/10 03:28:36;;;;;;;;;;;11.60;99.10;;;;;;5028986;28;19936;-70
2022/11/10 03:31:04;;;;;;;;;;;11.60;99.10;;;;;;5030323;28;19939;-69
2022/11/10 03:33:30;;;;;;;;;;;11.60;99.10;;;;;;5035452;28;19929;-69
2022/11/10 03:35:57;;;;;;;;;;;11.60;99.10;;;;;;5035367;28;19928;-69
2022/11/10 03:38:23;;;;;;;;;;;11.60;99.20;;;;;;5029153;28;19952;-69
2022/11/10 03:40:50;;;;;;;;;;;11.60;99.20;;;;;;5031655;28;20355;-69
2022/11/10 03:43:16;;;;;;;;;;;11.60;99.10;;;;;;5032759;28;19935;-69
2022/11/10 03:45:43;;;;;;;;;;;11.60;99.20;;;;;;5030577;28;20402;-69
2022/11/10 03:48:11;;;;;;;;;;;11.50;99.10;;;;;;5033332;28;19929;-69
2022/11/10 03:50:38;;;;;;;;;;;11.50;99.10;;;;;;5034963;28;19947;-69
2022/11/10 03:53:04;;;;;;;;;;;11.50;99.10;;;;;;5032182;28;19956;-69
2022/11/10 03:55:31;;;;;;;;;;;11.50;99.10;;;;;;5028382;28;19929;-69
2022/11/10 03:58:00;;;;;;;;;;;11.50;99.20;;;;;;5031103;28;19932;-69
2022/11/10 04:00:28;;;;;;;;;;;11.50;99.20;;;;;;5031875;28;19932;-69
2022/11/10 04:02:54;;;;;;;;;;;11.40;99.10;;;;;;5037595;28;19952;-69
2022/11/10 04:10:56;;;;;;;;;;;11.40;99.20;;;;;;5033235;28;20007;-69
2022/11/10 04:16:07;;;;;;;;;;;11.30;99.20;;;;;;5033305;28;20101;-70
2022/11/10 04:18:33;;;;;;;;;;;11.30;99.20;;;;;;5038296;28;19936;-69
2022/11/10 04:21:02;;;;;;;;;;;11.30;99.20;;;;;;5034200;28;19928;-69
2022/11/10 04:23:33;;;;;;;;;;;11.30;99.20;;;;;;5038615;28;19929;-69
2022/11/10 04:28:45;;;;;;;;;;;11.30;99.20;;;;;;5030560;28;20058;-70
2022/11/10 04:31:12;;;;;;;;;;;11.30;99.20;;;;;;5029533;28;19936;-69
2022/11/10 04:33:40;;;;;;;;;;;11.30;99.20;;;;;;5032444;28;19939;-69
2022/11/10 04:36:08;;;;;;;;;;;11.20;99.20;;;;;;5041193;28;20320;-69
2022/11/10 04:38:35;;;;;;;;;;;11.20;99.20;;;;;;5031326;28;19929;-69
2022/11/10 04:41:02;;;;;;;;;;;11.20;99.20;;;;;;5032134;28;19936;-69
2022/11/10 04:43:28;;;;;;;;;;;11.20;99.20;;;;;;5026984;28;19933;-69
2022/11/10 04:45:55;;;;;;;;;;;11.20;99.20;;;;;;5032417;28;19932;-69
2022/11/10 04:48:22;;;;;;;;;;;11.20;99.20;;;;;;5035179;28;19932;-69
2022/11/10 04:50:49;;;;;;;;;;;11.10;99.20;;;;;;5029111;28;20392;-70
2022/11/10 04:53:17;;;;;;;;;;;11.20;99.20;;;;;;5031477;28;20411;-69
2022/11/10 04:55:44;;;;;;;;;;;11.10;99.20;;;;;;5019437;28;20022;-69
2022/11/10 04:58:11;;;;;;;;;;;11.10;99.20;;;;;;5027741;28;19936;-70
2022/11/10 05:00:38;;;;;;;;;;;11.10;99.20;;;;;;5029967;28;20024;-69
2022/11/10 05:03:05;;;;;;;;;;;11.10;99.20;;;;;;5033096;28;19932;-68
2022/11/10 05:05:32;;;;;;;;;;;11.00;99.20;;;;;;5027270;28;19937;-69
2022/11/10 05:07:58;;;;;;;;;;;11.10;99.30;;;;;;5032817;28;19936;-69
2022/11/10 05:10:26;;;;;;;;;;;11.00;99.20;;;;;;5030294;28;19933;-69
2022/11/10 05:12:53;;;;;;;;;;;11.00;99.30;;;;;;5026094;28;19940;-69
2022/11/10 05:15:20;;;;;;;;;;;11.00;99.30;;;;;;5027227;28;20396;-69
2022/11/10 05:17:47;;;;;;;;;;;11.00;99.30;;;;;;5032451;28;19929;-69
2022/11/10 05:20:14;;;;;;;;;;;11.00;99.30;;;;;;5027697;28;19940;-69
2022/11/10 05:22:43;;;;;;;;;;;11.00;99.30;;;;;;5032987;28;19945;-69
2022/11/10 05:25:10;;;;;;;;;;;10.90;99.30;;;;;;5025780;28;19940;-69
2022/11/10 05:27:37;;;;;;;;;;;11.00;99.30;;;;;;5027290;28;19929;-69
2022/11/10 05:30:04;;;;;;;;;;;11.00;99.30;;;;;;5029536;28;19937;-69
2022/11/10 05:32:31;;;;;;;;;;;10.90;99.30;;;;;;5026750;28;19936;-70
2022/11/10 05:34:58;;;;;;;;;;;10.90;99.30;;;;;;5031911;28;19937;-69
2022/11/10 05:37:24;;;;;;;;;;;10.90;99.30;;;;;;5031639;28;19940;-69
2022/11/10 05:39:51;;;;;;;;;;;10.90;99.30;;;;;;5028954;28;19935;-69
2022/11/10 05:42:17;;;;;;;;;;;10.90;99.30;;;;;;5029748;28;19929;-69
2022/11/10 05:44:45;;;;;;;;;;;10.90;99.30;;;;;;5026033;28;19936;-70
2022/11/10 05:47:12;;;;;;;;;;;10.80;99.30;;;;;;5032844;28;19929;-69
2022/11/10 05:49:38;;;;;;;;;;;10.80;99.30;;;;;;5025953;28;19929;-69
2022/11/10 05:52:05;;;;;;;;;;;10.80;99.30;;;;;;5031454;28;19935;-69
2022/11/10 05:54:31;;;;;;;;;;;10.80;99.30;;;;;;5029998;28;19980;-69
2022/11/10 05:56:58;;;;;;;;;;;10.80;99.30;;;;;;5034358;28;20312;-69
2022/11/10 05:59:24;;;;;;;;;;;10.80;99.30;;;;;;5025396;28;20388;-69
2022/11/10 06:01:52;;;;;;;;;;;10.80;99.30;;;;;;5021607;28;19932;-69
2022/11/10 06:04:19;;;;;;;;;;;10.80;99.30;;;;;;5030741;28;19925;-69
2022/11/10 06:06:45;;;;;;;;;;;10.80;99.30;;;;;;5029051;28;19925;-69
2022/11/10 06:09:12;;;;;;;;;;;10.80;99.40;;;;;;5031277;28;19928;-69
2022/11/10 06:11:38;;;;;;;;;;;10.70;99.30;;;;;;5026543;28;20652;-69
2022/11/10 06:14:05;;;;;;;;;;;10.70;99.30;;;;;;5024345;28;19936;-69
2022/11/10 06:16:31;;;;;;;;;;;10.70;99.30;;;;;;5025531;28;19933;-70
2022/11/10 06:19:00;;;;;;;;;;;10.70;99.30;;;;;;5031206;28;19936;-69
2022/11/10 06:21:27;;;;;;;;;;;10.70;99.30;;;;;;5028263;28;19975;-68
2022/11/10 06:23:53;;;;;;;;;;;10.70;99.00;;;;;;5029173;28;19933;-68
2022/11/10 06:26:20;;;;;;;;;;;10.60;99.10;;;;;;5026673;28;19929;-68
2022/11/10 06:28:46;;;;;;;;;;;10.60;99.20;;;;;;5030711;28;19931;-68
2022/11/10 06:31:13;;;;;;;;;;;10.60;99.20;;;;;;5029701;28;19933;-68
2022/11/10 06:33:41;;;;;;;;;;;10.60;99.20;;;;;;5027963;28;20539;-68
2022/11/10 06:36:09;;;;;;;;;;;10.60;99.20;;;;;;5031197;28;19929;-68
2022/11/10 06:38:36;;;;;;;;;;;10.60;99.20;;;;;;5036292;28;19921;-67
2022/11/10 06:41:02;;;;;;;;;;;10.60;99.20;;;;;;5030038;28;19959;-67
2022/11/10 06:43:29;;;;;;;;;;;10.60;99.20;;;;;;5034457;28;19925;-68
2022/11/10 06:45:56;;;;;;;;;;;10.60;99.20;;;;;;5030743;28;19931;-68
2022/11/10 06:48:23;;;;;;;;;;;10.60;99.20;;;;;;5032742;28;19929;-67
2022/11/10 06:50:49;;;;;;;;;;;10.60;99.20;;;;;;5027256;28;19932;-68
2022/11/10 06:53:17;;;;;;;;;;;10.60;99.20;;;;;;5030103;28;19929;-68
2022/11/10 06:55:44;;;;;;;;;;;10.60;99.20;;;;;;5023557;28;20451;-67
2022/11/10 06:58:10;;;;;;;;;;;10.50;99.20;;;;;;5027412;28;19933;-68
2022/11/10 07:00:37;;;;;;;;;;;10.50;99.10;;;;;;5028797;28;20399;-67
2022/11/10 07:03:04;;;;;;;;;;;10.50;99.10;;;;;;5032898;28;19930;-72
2022/11/10 07:05:32;;;;;;;;;;;10.50;99.10;;;;;;5026222;28;20373;-72
2022/11/10 07:08:01;;;;;;;;;;;10.50;99.10;;;;;;5028080;28;19925;-72
2022/11/10 07:10:29;;;;;;;;;;;10.50;99.10;;;;;;5030208;28;19936;-72
2022/11/10 07:12:57;;;;;;;;;;;10.50;99.10;;;;;;5018457;28;19929;-72
2022/11/10 07:15:23;;;;;;;;;;;10.50;99.10;;;;;;5025036;28;19969;-72
2022/11/10 07:17:50;;;;;;;;;;;10.50;99.10;;;;;;5029237;28;20384;-72
2022/11/10 07:20:16;;;;;;;;;;;10.50;99.10;;;;;;5029654;28;20427;-72
2022/11/10 07:22:43;;;;;;;;;;;10.50;99.10;;;;;;5027954;28;19929;-72
2022/11/10 07:25:10;;;;;;;;;;;10.40;99.10;;;;;;5029586;28;19929;-72
2022/11/10 07:27:38;;;;;;;;;;;10.50;99.10;;;;;;5027117;28;20682;-72
2022/11/10 07:30:05;;;;;;;;;;;10.50;99.10;;;;;;5023138;28;20733;-72
2022/11/10 07:32:32;;;;;;;;;;;10.50;99.10;;;;;;5025220;28;20008;-72
2022/11/10 07:34:58;;;;;;;;;;;10.50;99.10;;;;;;5030005;28;19936;-72
2022/11/10 07:37:25;;;;;;;;;;;10.40;99.00;;;;;;5026528;28;19933;-71
2022/11/10 07:39:51;;;;;;;;;;;10.40;99.00;;;;;;5029921;28;19937;-71
2022/11/10 07:42:18;;;;;;;;;;;10.40;99.00;;;;;;5026722;28;19929;-72
2022/11/10 07:44:46;;;;;;;;;;;10.40;99.10;;;;;;5023526;28;19933;-72
2022/11/10 07:47:12;;;;;;;;;;;10.40;99.10;;;;;;5024469;28;19936;-72
2022/11/10 07:49:39;;;;;;;;;;;10.40;99.10;;;;;;5034540;28;19939;-72
2022/11/10 07:52:05;;;;;;;;;;;10.40;99.10;;;;;;5026027;28;19937;-72
2022/11/10 07:54:32;;;;;;;;;;;10.40;99.10;;;;;;5029009;28;19933;-72
2022/11/10 07:56:58;;;;;;;;;;;10.40;99.10;;;;;;5019917;28;19929;-72
2022/11/10 07:59:25;;;;;;;;;;;10.40;99.10;;;;;;5025647;28;20043;-71
2022/11/10 08:01:53;;;;;;;;;;;10.40;99.10;;;;;;5029249;28;19928;-72
2022/11/10 08:04:19;;;;;;;;;;;10.40;99.10;;;;;;5033823;28;19929;-71
2022/11/10 08:06:46;;;;;;;;;;;10.40;99.10;;;;;;5034936;28;19935;-72
2022/11/10 08:09:12;;;;;;;;;;;10.40;99.10;;;;;;5030723;28;20284;-71
2022/11/10 08:11:39;;;;;;;;;;;10.40;99.00;;;;;;5026416;28;19940;-72
2022/11/10 08:14:06;;;;;;;;;;;10.40;99.10;;;;;;5033592;28;19929;-72
2022/11/10 08:16:32;;;;;;;;;;;10.30;99.00;;;;;;5033015;28;19946;-73
2022/11/10 08:19:00;;;;;;;;;;;10.40;99.10;;;;;;5033710;28;19935;-72
2022/11/10 08:21:27;;;;;;;;;;;10.40;99.10;;;;;;5029295;28;19929;-72
2022/11/10 08:23:53;;;;;;;;;;;10.30;99.00;;;;;;5037848;28;19929;-73
2022/11/10 08:26:20;;;;;;;;;;;10.30;99.00;;;;;;5023666;28;19929;-71
2022/11/10 08:28:47;;;;;;;;;;;10.30;99.00;;;;;;5033477;28;19928;-72
2022/11/10 08:31:13;;;;;;;;;;;10.30;99.00;;;;;;5042241;28;20531;-72
2022/11/10 08:33:40;;;;;;;;;;;10.30;99.00;;;;;;5032852;28;20580;-72
2022/11/10 08:36:08;;;;;;;;;;;10.30;99.00;;;;;;5038712;28;20244;-72
2022/11/10 08:38:35;;;;;;;;;;;10.30;99.00;;;;;;5040604;28;19933;-72
2022/11/10 08:41:01;;;;;;;;;;;10.30;99.00;;;;;;5026267;28;19929;-72
2022/11/10 08:43:28;;;;;;;;;;;10.30;99.30;;;;;;5034804;28;19933;-72
2022/11/10 08:45:55;;;;;;;;;;;10.30;99.00;;;;;;5034791;28;19937;-72
2022/11/10 08:48:22;;;;;;;;;;;10.30;99.00;;;;;;5034115;28;19932;-72
2022/11/10 08:50:49;;;;;;;;;;;10.30;99.00;;;;;;5033899;28;19933;-72
2022/11/10 08:53:18;;;;;;;;;;;10.30;99.00;;;;;;5037749;28;19939;-70
2022/11/10 08:55:44;;;;;;;;;;;10.30;99.00;;;;;;5032416;28;20312;-71
2022/11/10 08:58:12;;;;;;;;;;;10.30;99.00;;;;;;5031332;28;19929;-71
2022/11/10 09:00:39;;;;;;;;;;;10.30;99.00;;;;;;5029620;28;19940;-71
2022/11/10 09:03:06;;;;;;;;;;;10.30;99.00;;;;;;5029564;28;19995;-71
2022/11/10 09:05:32;;;;;;;;;;;10.30;99.00;;;;;;5040145;28;19935;-71
2022/11/10 09:07:59;;;;;;;;;;;10.30;99.00;;;;;;5033975;28;19929;-71
2022/11/10 09:10:27;;;;;;;;;;;10.30;99.00;;;;;;5041140;28;19947;-73
2022/11/10 09:12:53;;;;;;;;;;;10.30;99.00;;;;;;5017244;28;19936;-73
2022/11/10 09:15:20;;;;;;;;;;;10.30;99.00;;;;;;5039809;28;20400;-73
2022/11/10 09:17:46;;;;;;;;;;;10.30;99.00;;;;;;5034316;28;20304;-72
2022/11/10 09:20:13;;;;;;;;;;;10.30;99.00;;;;;;5038397;28;19935;-73
2022/11/10 09:22:40;;;;;;;;;;;10.30;99.00;;;;;;5033705;28;19940;-73
2022/11/10 09:25:06;;;;;;;;;;;10.40;99.10;;;;;;5033049;28;19956;-73
2022/11/10 09:27:37;;;;;;;;;;;10.30;99.00;;;;;;5031512;28;19932;-73
2022/11/10 09:30:04;;;;;;;;;;;10.40;99.10;;;;;;5029900;28;19936;-73
2022/11/10 09:32:31;;;;;;;;;;;10.40;99.10;;;;;;5029555;28;20619;-73
2022/11/10 09:34:57;;;;;;;;;;;10.40;99.10;;;;;;5032204;28;19928;-74
2022/11/10 09:37:24;;;;;;;;;;;10.40;99.20;;;;;;5031313;28;19936;-73
2022/11/10 09:39:50;;;;;;;;;;;10.40;99.50;;;;;;5030704;28;19935;-73
2022/11/10 09:42:24;;;;;;;;;;;10.40;99.20;;;;;;5027229;28;19929;-73
2022/11/10 09:44:54;;;;;;;;;;;10.50;99.30;;;;;;5028554;28;19929;-73
2022/11/10 09:47:24;;;;;;;;;;;10.50;99.30;;;;;;5027078;28;19929;-73
2022/11/10 09:49:53;;;;;;;;;;;10.50;99.30;;;;;;5026634;28;19944;-74
2022/11/10 09:52:21;;;;;;;;;;;10.60;99.40;;;;;;5028811;28;19936;-72
2022/11/10 09:54:51;;;;;;;;;;;10.70;99.40;;;;;;5026924;28;20447;-74
2022/11/10 09:57:20;;;;;;;;;;;10.70;99.20;;;;;;5032186;28;20431;-74
2022/11/10 09:59:46;;;;;;;;;;;10.80;99.10;;;;;;5027977;28;19929;-74
2022/11/10 10:02:20;;;;;;;;;;;10.90;99.00;;;;;;5022889;28;20667;-74
2022/11/10 10:04:57;;;;;;;;;;;10.90;98.90;;;;;;5027532;28;19929;-74
2022/11/10 10:07:25;;;;;;;;;;;11.00;99.00;;;;;;5031964;28;19944;-73
2022/11/10 10:09:54;;;;;;;;;;;11.10;99.00;;;;;;5019791;28;19930;-74
2022/11/10 10:12:26;;;;;;;;;;;11.10;98.80;;;;;;5020421;28;19933;-74
2022/11/10 10:15:00;;;;;;;;;;;11.10;98.70;;;;;;5026894;28;19936;-74
2022/11/10 10:17:28;;;;;;;;;;;11.10;98.80;;;;;;5023121;28;19933;-74
2022/11/10 10:19:57;;;;;;;;;;;11.20;98.40;;;;;;5025438;28;19940;-74
2022/11/10 10:22:49;;;;;;;;;;;11.20;98.20;;;;;;5024623;28;19936;-74
2022/11/10 10:25:18;;;;;;;;;;;11.30;98.20;;;;;;5019681;28;19929;-74
2022/11/10 10:27:46;;;;;;;;;;;11.40;98.20;;;;;;5027921;28;19936;-74
2022/11/10 10:30:13;;;;;;;;;;;11.40;98.00;;;;;;5029400;28;19928;-74
2022/11/10 10:32:42;;;;;;;;;;;11.50;97.80;;;;;;5026478;28;20568;-74
2022/11/10 10:35:12;;;;;;;;;;;11.60;97.60;;;;;;5033637;28;20716;-74
2022/11/10 10:37:41;;;;;;;;;;;11.60;97.40;;;;;;5034041;28;20723;-74
2022/11/10 10:40:09;;;;;;;;;;;11.70;97.30;;;;;;5028005;28;19936;-74
2022/11/10 10:42:37;;;;;;;;;;;11.80;97.70;;;;;;5028027;28;19944;-74
2022/11/10 10:45:17;;;;;;;;;;;11.80;97.30;;;;;;5028765;28;19929;-73
2022/11/10 10:47:46;;;;;;;;;;;11.90;97.20;;;;;;5022794;28;19928;-73
2022/11/10 10:50:20;;;;;;;;;;;12.00;97.10;;;;;;5026954;28;19936;-74
2022/11/10 10:53:04;;;;;;;;;;;12.00;97.00;;;;;;5031989;28;19929;-73
2022/11/10 10:55:31;;;;;;;;;;;12.00;97.00;;;;;;5031911;28;19929;-74
2022/11/10 10:57:58;;;;;;;;;;;12.10;96.80;;;;;;5025761;28;19929;-74
2022/11/10 11:00:25;;;;;;;;;;;12.10;96.80;;;;;;5030258;28;20182;-75
2022/11/10 11:03:02;;;;;;;;;;;12.10;96.80;;;;;;5024800;28;19941;-74
2022/11/10 11:05:29;;;;;;;;;;;12.10;96.80;;;;;;5032081;28;19929;-74
2022/11/10 11:07:57;;;;;;;;;;;12.20;96.90;;;;;;5028360;28;19940;-75
2022/11/10 11:10:25;;;;;;;;;;;12.20;96.90;;;;;;5023484;28;19940;-73
2022/11/10 11:12:51;;;;;;;;;;;12.20;96.90;;;;;;5020993;28;19952;-74
2022/11/10 11:15:20;;;;;;;;;;;12.20;96.80;;;;;;5023696;28;19929;-75
2022/11/10 11:17:53;;;;;;;;;;;12.20;96.80;;;;;;5023453;28;19933;-73
2022/11/10 11:20:23;;;;;;;;;;;12.30;96.80;;;;;;5024269;28;20411;-74
2022/11/10 11:22:52;;;;;;;;;;;12.30;96.70;;;;;;5031902;28;20385;-74
2022/11/10 11:25:22;;;;;;;;;;;12.40;96.60;;;;;;5022996;28;19929;-74
2022/11/10 11:27:54;;;;;;;;;;;12.50;96.60;;;;;;5028581;28;19928;-74
2022/11/10 11:30:22;;;;;;;;;;;12.50;96.40;;;;;;5026041;28;19936;-74
2022/11/10 11:32:56;;;;;;;;;;;12.50;96.40;;;;;;5025481;28;19959;-75
2022/11/10 11:35:30;;;;;;;;;;;12.60;96.40;;;;;;5027385;28;20153;-74
2022/11/10 11:38:03;;;;;;;;;;;12.60;96.20;;;;;;5037082;28;19932;-74
2022/11/10 11:40:41;;;;;;;;;;;12.70;96.20;;;;;;5025207;28;20400;-74
2022/11/10 11:43:15;;;;;;;;;;;12.80;96.10;;;;;;5027526;28;19935;-74
2022/11/10 11:45:46;;;;;;;;;;;12.80;95.90;;;;;;5034446;28;19928;-75
2022/11/10 11:48:39;;;;;;;;;;;12.90;95.80;;;;;;5031266;28;20023;-75
2022/11/10 11:51:11;;;;;;;;;;;12.90;95.70;;;;;;4987328;28;20152;-75
2022/11/10 11:53:46;;;;;;;;;;;13.00;95.60;;;;;;5035927;28;20316;-75
2022/11/10 11:56:19;;;;;;;;;;;13.10;95.30;;;;;;5035923;28;19929;-75
2022/11/10 11:58:46;;;;;;;;;;;13.10;95.30;;;;;;5027712;28;19929;-74
2022/11/10 12:01:18;;;;;;;;;;;13.20;94.80;;;;;;5033999;28;19929;-74
2022/11/10 12:03:54;;;;;;;;;;;13.20;94.90;;;;;;5025013;28;20385;-75
2022/11/10 12:06:36;;;;;;;;;;;13.30;94.40;;;;;;5031371;28;19935;-75
2022/11/10 12:09:09;;;;;;;;;;;13.40;94.50;;;;;;5022563;28;19929;-75
2022/11/10 12:11:44;;;;;;;;;;;13.40;94.40;;;;;;5020958;28;19929;-75
2022/11/10 12:14:14;;;;;;;;;;;13.50;94.40;;;;;;5029232;28;19929;-74
2022/11/10 12:16:44;;;;;;;;;;;13.50;94.40;;;;;;5035313;28;19936;-75
2022/11/10 12:19:14;;;;;;;;;;;13.60;94.40;;;;;;5031406;28;19964;-75
2022/11/10 12:21:46;;;;;;;;;;;13.60;93.60;;;;;;5027856;28;20352;-76
2022/11/10 12:24:24;;;;;;;;;;;13.70;93.70;;;;;;5029343;28;19941;-75
2022/11/10 12:26:53;;;;;;;;;;;13.70;93.70;;;;;;5027122;28;19928;-74
2022/11/10 12:29:23;;;;;;;;;;;13.80;93.60;;;;;;5033117;28;20290;-75
2022/11/10 12:31:52;;;;;;;;;;;13.80;93.50;;;;;;5021226;28;19929;-75
2022/11/10 12:34:22;;;;;;;;;;;13.80;93.60;;;;;;5024304;28;20380;-75
2022/11/10 12:36:51;;;;;;;;;;;13.90;93.60;;;;;;5027772;28;20412;-75
2022/11/10 12:39:20;;;;;;;;;;;13.90;93.40;;;;;;5025648;28;19944;-75
2022/11/10 12:41:49;;;;;;;;;;;14.00;92.90;;;;;;5022298;28;19933;-76
2022/11/10 12:44:20;;;;;;;;;;;14.00;92.50;;;;;;5030291;28;19935;-76
2022/11/10 12:46:49;;;;;;;;;;;14.10;92.00;;;;;;5028242;28;19933;-75
2022/11/10 12:49:18;;;;;;;;;;;14.10;92.00;;;;;;5029904;28;19936;-75
2022/11/10 12:51:48;;;;;;;;;;;14.10;92.60;;;;;;5028268;28;19968;-75
2022/11/10 12:54:17;;;;;;;;;;;14.20;92.20;;;;;;5026791;28;19936;-76
2022/11/10 12:56:47;;;;;;;;;;;14.20;92.50;;;;;;5024395;28;19939;-75
2022/11/10 12:59:15;;;;;;;;;;;14.20;92.60;;;;;;5035226;28;19928;-75
2022/11/10 13:01:42;;;;;;;;;;;14.20;92.80;;;;;;5027877;28;19964;-74
2022/11/10 13:04:13;;;;;;;;;;;14.20;92.70;;;;;;5029049;28;20388;-75
2022/11/10 13:06:45;;;;;;;;;;;14.30;92.50;;;;;;5029726;28;19944;-75
2022/11/10 13:09:23;;;;;;;;;;;14.40;92.10;;;;;;5028923;28;19964;-75
2022/11/10 13:12:03;;;;;;;;;;;14.40;91.90;;;;;;5023579;28;19948;-75
2022/11/10 13:14:30;;;;;;;;;;;14.40;92.20;;;;;;5028813;28;19932;-75
2022/11/10 13:16:57;;;;;;;;;;;14.40;92.00;;;;;;5025911;28;20377;-76
2022/11/10 13:19:42;;;;;;;;;;;14.50;91.80;;;;;;5034926;28;19936;-75
2022/11/10 13:22:10;;;;;;;;;;;14.50;92.00;;;;;;5025659;28;19929;-75
2022/11/10 13:24:38;;;;;;;;;;;14.50;91.80;;;;;;5034255;28;19928;-74
2022/11/10 13:27:09;;;;;;;;;;;14.50;91.60;;;;;;5024113;28;19929;-75
2022/11/10 13:29:53;;;;;;;;;;;14.60;91.80;;;;;;5019727;28;19933;-75
2022/11/10 13:32:24;;;;;;;;;;;14.60;91.90;;;;;;5024980;28;19936;-74
2022/11/10 13:34:51;;;;;;;;;;;14.60;91.90;;;;;;5022993;28;19933;-75
2022/11/10 13:37:36;;;;;;;;;;;14.60;92.00;;;;;;5030423;28;19944;-75
2022/11/10 13:40:28;;;;;;;;;;;14.70;91.70;;;;;;5027119;28;19932;-75
2022/11/10 13:43:13;;;;;;;;;;;14.60;91.70;;;;;;5026545;28;19991;-75
2022/11/10 13:45:41;;;;;;;;;;;14.70;91.30;;;;;;5029987;28;19932;-75
2022/11/10 13:48:17;;;;;;;;;;;14.70;91.00;;;;;;5030244;28;19936;-75
2022/11/10 13:50:49;;;;;;;;;;;14.80;91.30;;;;;;5029691;28;19928;-75
2022/11/10 13:53:20;;;;;;;;;;;14.80;91.50;;;;;;5023925;28;20062;-75
2022/11/10 13:55:52;;;;;;;;;;;14.80;91.30;;;;;;5022730;28;19936;-75
2022/11/10 13:58:22;;;;;;;;;;;14.80;91.50;;;;;;5030032;28;19936;-74
2022/11/10 14:00:50;;;;;;;;;;;14.80;91.70;;;;;;5028368;28;19929;-74
2022/11/10 14:03:31;;;;;;;;;;;14.90;92.00;;;;;;5028874;28;19936;-73
2022/11/10 14:06:06;;;;;;;;;;;14.80;91.80;;;;;;5026400;28;19933;-74
2022/11/10 14:08:37;;;;;;;;;;;14.80;91.50;;;;;;5027417;28;19974;-74
2022/11/10 14:11:07;;;;;;;;;;;14.80;91.50;;;;;;5026461;28;19952;-74
2022/11/10 14:13:38;;;;;;;;;;;14.70;91.60;;;;;;5030459;28;19937;-74
2022/11/10 14:16:11;;;;;;;;;;;14.70;91.80;;;;;;5024886;28;20530;-74
2022/11/10 14:18:39;;;;;;;;;;;14.60;92.00;;;;;;5032841;28;19933;-74
2022/11/10 14:21:06;;;;;;;;;;;14.60;91.70;;;;;;5034092;28;20542;-73
2022/11/10 14:23:34;;;;;;;;;;;14.50;91.90;;;;;;5026868;28;19935;-75
2022/11/10 14:26:02;;;;;;;;;;;14.50;92.40;;;;;;5029039;28;19929;-74
2022/11/10 14:28:31;;;;;;;;;;;14.50;92.30;;;;;;5028345;28;19964;-69
2022/11/10 14:30:58;;;;;;;;;;;14.40;92.40;;;;;;5028563;28;19933;-69
2022/11/10 14:33:26;;;;;;;;;;;14.40;92.60;;;;;;5027430;28;20253;-70
2022/11/10 14:35:53;;;;;;;;;;;14.30;92.70;;;;;;5036483;28;19932;-69
2022/11/10 14:38:21;;;;;;;;;;;14.30;92.90;;;;;;5036669;28;19933;-69